Terminal Aerodrome Forecast
Issued by NWS

Home | Current Version | Previous Version | Text Only | Print | Product List | Glossary On
Versions: 1 2 3 4 5 6 7 8 9 10 11 12 13 14 15 16 17
000
FTUS41 KBOX 260202 AAA
TAFBAF
TAF AMD
KBAF 260202Z 2602/2624 17006KT P6SM BKN060
     FM260500 19004KT 3SM BR VCSH BKN030
     FM261400 24005KT P6SM VCSH BKN035
     FM261900 29006KT P6SM SCT080=

USA.gov is the U.S. government's official web portal to all federal, state and local government web resources and services.